sensor_id;sensor_type;location;lat;lon;timestamp;pressure;altitude;pressure_sealevel;temperature;humidity
43125;BME280;49182;50.788;7.318;2024-01-06T00:00:16;99568.88;;;7.22;86.06
43125;BME280;49182;50.788;7.318;2024-01-06T00:05:18;99575.63;;;7.24;86.30
43125;BME280;49182;50.788;7.318;2024-01-06T00:10:21;99577.72;;;7.21;85.71
43125;BME280;49182;50.788;7.318;2024-01-06T00:15:23;99568.44;;;7.17;85.64
43125;BME280;49182;50.788;7.318;2024-01-06T00:20:24;99592.34;;;7.23;85.97
43125;BME280;49182;50.788;7.318;2024-01-06T00:25:27;99592.19;;;7.25;86.00
43125;BME280;49182;50.788;7.318;2024-01-06T00:30:29;99594.97;;;7.23;85.61
43125;BME280;49182;50.788;7.318;2024-01-06T00:35:31;99530.84;;;6.87;85.15
43125;BME280;49182;50.788;7.318;2024-01-06T00:40:34;99595.38;;;7.28;85.21
43125;BME280;49182;50.788;7.318;2024-01-06T00:45:37;99593.56;;;7.29;86.28
43125;BME280;49182;50.788;7.318;2024-01-06T00:50:38;99576.03;;;7.20;86.87
43125;BME280;49182;50.788;7.318;2024-01-06T00:55:41;99591.53;;;7.32;86.54
43125;BME280;49182;50.788;7.318;2024-01-06T01:00:43;99599.81;;;7.28;86.74
43125;BME280;49182;50.788;7.318;2024-01-06T01:05:45;99549.66;;;7.02;87.32
43125;BME280;49182;50.788;7.318;2024-01-06T01:10:48;99593.16;;;7.24;87.10
43125;BME280;49182;50.788;7.318;2024-01-06T01:15:50;99593.44;;;7.30;86.80
43125;BME280;49182;50.788;7.318;2024-01-06T01:20:51;99587.34;;;7.30;87.70
43125;BME280;49182;50.788;7.318;2024-01-06T01:25:55;99597.84;;;7.30;88.47
43125;BME280;49182;50.788;7.318;2024-01-06T01:30:57;99602.56;;;7.26;89.46
43125;BME280;49182;50.788;7.318;2024-01-06T01:35:59;99612.50;;;7.23;92.09
43125;BME280;49182;50.788;7.318;2024-01-06T01:41:05;99618.44;;;7.25;94.47
43125;BME280;49182;50.788;7.318;2024-01-06T01:46:07;99624.94;;;7.11;98.28
43125;BME280;49182;50.788;7.318;2024-01-06T01:51:09;99627.41;;;6.94;100.00
43125;BME280;49182;50.788;7.318;2024-01-06T01:56:12;99633.22;;;6.97;100.00
43125;BME280;49182;50.788;7.318;2024-01-06T02:01:15;99642.34;;;7.03;100.00
43125;BME280;49182;50.788;7.318;2024-01-06T02:06:16;99649.22;;;7.04;100.00
43125;BME280;49182;50.788;7.318;2024-01-06T02:11:19;99641.22;;;7.05;100.00
43125;BME280;49182;50.788;7.318;2024-01-06T02:16:21;99639.13;;;6.99;100.00
43125;BME280;49182;50.788;7.318;2024-01-06T02:21:23;99621.72;;;6.88;100.00
43125;BME280;49182;50.788;7.318;2024-01-06T02:26:26;99617.44;;;6.87;100.00
43125;BME280;49182;50.788;7.318;2024-01-06T02:31:28;99642.06;;;6.96;100.00
43125;BME280;49182;50.788;7.318;2024-01-06T02:36:30;99649.75;;;6.98;100.00
43125;BME280;49182;50.788;7.318;2024-01-06T02:41:33;99658.47;;;6.98;100.00
43125;BME280;49182;50.788;7.318;2024-01-06T02:46:35;99662.22;;;6.96;100.00
43125;BME280;49182;50.788;7.318;2024-01-06T02:51:37;99667.47;;;6.96;100.00
43125;BME280;49182;50.788;7.318;2024-01-06T02:56:40;99685.53;;;6.99;100.00
43125;BME280;49182;50.788;7.318;2024-01-06T03:01:41;99692.59;;;6.98;100.00
43125;BME280;49182;50.788;7.318;2024-01-06T03:06:43;99694.25;;;6.99;100.00
43125;BME280;49182;50.788;7.318;2024-01-06T03:11:46;99694.91;;;6.91;100.00
43125;BME280;49182;50.788;7.318;2024-01-06T03:16:48;99707.75;;;6.85;100.00
43125;BME280;49182;50.788;7.318;2024-01-06T03:21:49;99703.06;;;6.88;100.00
43125;BME280;49182;50.788;7.318;2024-01-06T03:26:52;99721.31;;;6.90;100.00
43125;BME280;49182;50.788;7.318;2024-01-06T03:31:54;99712.59;;;6.89;100.00
43125;BME280;49182;50.788;7.318;2024-01-06T03:36:56;99722.81;;;6.93;100.00
43125;BME280;49182;50.788;7.318;2024-01-06T03:42:00;99720.06;;;6.94;100.00
43125;BME280;49182;50.788;7.318;2024-01-06T03:47:01;99713.84;;;6.95;100.00
43125;BME280;49182;50.788;7.318;2024-01-06T03:52:04;99718.28;;;6.95;100.00
43125;BME280;49182;50.788;7.318;2024-01-06T03:57:07;99717.13;;;6.87;100.00
43125;BME280;49182;50.788;7.318;2024-01-06T04:02:08;99725.28;;;6.84;100.00
43125;BME280;49182;50.788;7.318;2024-01-06T04:07:10;99725.34;;;6.73;100.00
43125;BME280;49182;50.788;7.318;2024-01-06T04:12:13;99723.72;;;6.72;100.00
43125;BME280;49182;50.788;7.318;2024-01-06T04:17:15;99732.03;;;6.77;100.00
43125;BME280;49182;50.788;7.318;2024-01-06T04:22:17;99647.38;;;6.35;100.00
43125;BME280;49182;50.788;7.318;2024-01-06T04:27:20;99735.63;;;6.86;100.00
43125;BME280;49182;50.788;7.318;2024-01-06T04:32:21;99623.53;;;6.18;100.00
43125;BME280;49182;50.788;7.318;2024-01-06T04:37:24;99736.47;;;6.86;100.00
43125;BME280;49182;50.788;7.318;2024-01-06T04:42:27;99737.56;;;6.84;100.00
43125;BME280;49182;50.788;7.318;2024-01-06T04:47:29;99732.88;;;6.87;100.00
43125;BME280;49182;50.788;7.318;2024-01-06T04:52:31;99735.91;;;6.83;100.00
43125;BME280;49182;50.788;7.318;2024-01-06T04:57:34;99739.38;;;6.83;100.00
43125;BME280;49182;50.788;7.318;2024-01-06T05:02:36;99739.38;;;6.83;100.00
43125;BME280;49182;50.788;7.318;2024-01-06T05:07:38;99741.88;;;6.85;100.00
43125;BME280;49182;50.788;7.318;2024-01-06T05:12:41;99744.22;;;6.88;100.00
43125;BME280;49182;50.788;7.318;2024-01-06T05:17:43;99742.28;;;6.90;100.00
43125;BME280;49182;50.788;7.318;2024-01-06T05:22:45;99755.72;;;6.97;100.00
43125;BME280;49182;50.788;7.318;2024-01-06T05:27:48;99745.22;;;6.97;100.00
43125;BME280;49182;50.788;7.318;2024-01-06T05:32:50;99749.47;;;6.98;100.00
43125;BME280;49182;50.788;7.318;2024-01-06T05:37:53;99747.69;;;6.98;100.00
43125;BME280;49182;50.788;7.318;2024-01-06T05:42:56;99747.00;;;6.96;100.00
43125;BME280;49182;50.788;7.318;2024-01-06T05:47:57;99752.94;;;6.98;100.00
43125;BME280;49182;50.788;7.318;2024-01-06T05:52:59;99756.97;;;7.02;100.00
43125;BME280;49182;50.788;7.318;2024-01-06T05:58:03;99760.81;;;6.98;100.00
43125;BME280;49182;50.788;7.318;2024-01-06T06:03:05;99767.59;;;7.01;100.00
43125;BME280;49182;50.788;7.318;2024-01-06T06:08:07;99775.91;;;7.06;100.00
43125;BME280;49182;50.788;7.318;2024-01-06T06:13:10;99790.69;;;7.07;100.00
43125;BME280;49182;50.788;7.318;2024-01-06T06:18:11;99803.09;;;7.05;100.00
43125;BME280;49182;50.788;7.318;2024-01-06T06:23:13;99804.34;;;7.01;100.00
43125;BME280;49182;50.788;7.318;2024-01-06T06:28:16;99811.25;;;7.02;100.00
43125;BME280;49182;50.788;7.318;2024-01-06T06:33:18;99808.19;;;6.97;100.00
43125;BME280;49182;50.788;7.318;2024-01-06T06:38:20;99815.59;;;6.91;100.00
43125;BME280;49182;50.788;7.318;2024-01-06T06:43:23;99831.09;;;6.95;100.00
43125;BME280;49182;50.788;7.318;2024-01-06T06:48:25;99838.97;;;6.95;100.00
43125;BME280;49182;50.788;7.318;2024-01-06T06:53:26;99856.00;;;6.79;100.00
43125;BME280;49182;50.788;7.318;2024-01-06T06:58:29;99866.19;;;6.73;100.00
43125;BME280;49182;50.788;7.318;2024-01-06T07:03:31;99880.47;;;6.59;100.00
43125;BME280;49182;50.788;7.318;2024-01-06T07:08:33;99895.28;;;6.49;100.00
43125;BME280;49182;50.788;7.318;2024-01-06T07:13:36;99894.09;;;6.42;100.00
43125;BME280;49182;50.788;7.318;2024-01-06T07:18:37;99900.13;;;6.33;100.00
43125;BME280;49182;50.788;7.318;2024-01-06T07:23:39;99923.81;;;6.31;100.00
43125;BME280;49182;50.788;7.318;2024-01-06T07:28:43;99907.00;;;6.02;100.00
43125;BME280;49182;50.788;7.318;2024-01-06T07:33:44;99883.69;;;5.88;100.00
43125;BME280;49182;50.788;7.318;2024-01-06T07:38:46;99945.91;;;6.18;100.00
43125;BME280;49182;50.788;7.318;2024-01-06T07:43:49;99874.41;;;5.73;100.00
43125;BME280;49182;50.788;7.318;2024-01-06T07:48:51;99962.94;;;6.12;100.00
43125;BME280;49182;50.788;7.318;2024-01-06T07:53:53;99973.94;;;5.95;100.00
43125;BME280;49182;50.788;7.318;2024-01-06T07:58:56;99986.66;;;5.99;100.00
43125;BME280;49182;50.788;7.318;2024-01-06T08:03:58;100000.38;;;6.03;100.00
43125;BME280;49182;50.788;7.318;2024-01-06T08:09:00;99991.81;;;5.90;100.00
43125;BME280;49182;50.788;7.318;2024-01-06T08:14:03;100019.66;;;6.02;100.00
43125;BME280;49182;50.788;7.318;2024-01-06T08:19:04;100022.41;;;6.00;100.00
43125;BME280;49182;50.788;7.318;2024-01-06T08:24:06;100036.59;;;5.98;100.00
43125;BME280;49182;50.788;7.318;2024-01-06T08:29:09;100043.00;;;5.94;100.00
43125;BME280;49182;50.788;7.318;2024-01-06T08:34:11;100046.94;;;5.88;100.00
43125;BME280;49182;50.788;7.318;2024-01-06T08:39:13;100049.34;;;5.91;100.00
43125;BME280;49182;50.788;7.318;2024-01-06T08:44:17;100057.06;;;5.93;100.00
43125;BME280;49182;50.788;7.318;2024-01-06T08:49:18;100076.84;;;5.97;100.00
43125;BME280;49182;50.788;7.318;2024-01-06T08:54:20;100080.16;;;5.88;100.00
43125;BME280;49182;50.788;7.318;2024-01-06T08:59:23;100084.03;;;5.82;100.00
43125;BME280;49182;50.788;7.318;2024-01-06T09:04:25;100086.13;;;5.90;100.00
43125;BME280;49182;50.788;7.318;2024-01-06T09:09:28;100091.25;;;5.91;100.00
43125;BME280;49182;50.788;7.318;2024-01-06T09:14:31;100096.78;;;5.87;100.00
43125;BME280;49182;50.788;7.318;2024-01-06T09:19:33;100098.59;;;5.86;100.00
43125;BME280;49182;50.788;7.318;2024-01-06T09:24:34;100104.34;;;5.91;100.00
43125;BME280;49182;50.788;7.318;2024-01-06T09:29:37;100116.00;;;5.87;100.00
43125;BME280;49182;50.788;7.318;2024-01-06T09:34:39;100126.31;;;5.78;100.00
43125;BME280;49182;50.788;7.318;2024-01-06T09:39:41;100130.03;;;5.86;100.00
43125;BME280;49182;50.788;7.318;2024-01-06T09:44:44;100134.84;;;5.92;100.00
43125;BME280;49182;50.788;7.318;2024-01-06T09:49:48;100145.75;;;5.86;100.00
43125;BME280;49182;50.788;7.318;2024-01-06T09:54:52;100146.56;;;5.87;100.00
43125;BME280;49182;50.788;7.318;2024-01-06T09:59:56;100148.16;;;5.89;100.00
43125;BME280;49182;50.788;7.318;2024-01-06T10:04:57;100154.50;;;5.98;100.00
43125;BME280;49182;50.788;7.318;2024-01-06T10:09:59;100166.50;;;6.00;100.00
43125;BME280;49182;50.788;7.318;2024-01-06T10:15:04;100166.88;;;6.07;100.00
43125;BME280;49182;50.788;7.318;2024-01-06T10:20:08;100174.19;;;6.15;100.00
43125;BME280;49182;50.788;7.318;2024-01-06T10:25:11;100154.88;;;6.16;100.00
43125;BME280;49182;50.788;7.318;2024-01-06T10:30:14;100148.59;;;5.83;100.00
43125;BME280;49182;50.788;7.318;2024-01-06T10:35:17;100168.44;;;5.98;100.00
43125;BME280;49182;50.788;7.318;2024-01-06T10:40:19;100144.03;;;5.74;100.00
43125;BME280;49182;50.788;7.318;2024-01-06T10:45:22;100179.88;;;5.97;100.00
43125;BME280;49182;50.788;7.318;2024-01-06T10:50:24;100179.88;;;5.97;100.00
43125;BME280;49182;50.788;7.318;2024-01-06T10:55:26;100093.69;;;5.24;100.00
43125;BME280;49182;50.788;7.318;2024-01-06T11:00:29;100196.19;;;5.77;100.00
43125;BME280;49182;50.788;7.318;2024-01-06T11:05:32;100193.38;;;5.56;100.00
43125;BME280;49182;50.788;7.318;2024-01-06T11:10:35;100196.16;;;5.66;100.00
43125;BME280;49182;50.788;7.318;2024-01-06T11:15:46;100194.25;;;5.68;100.00
43125;BME280;49182;50.788;7.318;2024-01-06T11:21:14;100191.91;;;5.76;100.00
43125;BME280;49182;50.788;7.318;2024-01-06T11:26:16;100172.34;;;5.69;100.00
43125;BME280;49182;50.788;7.318;2024-01-06T11:31:20;100191.03;;;5.88;100.00
43125;BME280;49182;50.788;7.318;2024-01-06T11:36:22;100194.38;;;5.90;100.00
43125;BME280;49182;50.788;7.318;2024-01-06T11:41:48;100193.97;;;5.84;100.00
43125;BME280;49182;50.788;7.318;2024-01-06T11:46:51;100198.44;;;5.70;100.00
43125;BME280;49182;50.788;7.318;2024-01-06T11:51:57;100193.97;;;5.84;100.00
43125;BME280;49182;50.788;7.318;2024-01-06T11:56:59;100195.16;;;5.80;100.00
43125;BME280;49182;50.788;7.318;2024-01-06T12:02:02;100193.72;;;5.87;100.00
43125;BME280;49182;50.788;7.318;2024-01-06T12:07:04;100198.56;;;5.80;100.00
43125;BME280;49182;50.788;7.318;2024-01-06T12:12:07;100197.97;;;5.77;100.00
43125;BME280;49182;50.788;7.318;2024-01-06T12:17:11;100197.09;;;5.65;100.00
43125;BME280;49182;50.788;7.318;2024-01-06T12:22:14;100195.44;;;5.64;100.00
43125;BME280;49182;50.788;7.318;2024-01-06T12:27:17;100208.94;;;5.47;100.00
43125;BME280;49182;50.788;7.318;2024-01-06T12:32:20;100204.09;;;5.53;100.00
43125;BME280;49182;50.788;7.318;2024-01-06T12:37:22;100207.84;;;5.49;100.00
43125;BME280;49182;50.788;7.318;2024-01-06T12:42:24;100198.84;;;5.53;100.00
43125;BME280;49182;50.788;7.318;2024-01-06T12:47:27;100203.06;;;5.43;100.00
43125;BME280;49182;50.788;7.318;2024-01-06T12:52:29;100200.53;;;5.31;100.00
43125;BME280;49182;50.788;7.318;2024-01-06T12:57:31;100201.53;;;5.41;100.00
43125;BME280;49182;50.788;7.318;2024-01-06T13:02:34;100197.03;;;5.43;100.00
43125;BME280;49182;50.788;7.318;2024-01-06T13:07:36;100209.28;;;5.42;100.00
43125;BME280;49182;50.788;7.318;2024-01-06T13:12:38;100217.13;;;5.42;100.00
43125;BME280;49182;50.788;7.318;2024-01-06T13:17:41;100232.84;;;5.42;100.00
43125;BME280;49182;50.788;7.318;2024-01-06T13:22:43;100240.78;;;5.41;100.00
43125;BME280;49182;50.788;7.318;2024-01-06T13:27:45;100237.44;;;5.39;100.00
43125;BME280;49182;50.788;7.318;2024-01-06T13:32:48;100249.81;;;5.37;100.00
43125;BME280;49182;50.788;7.318;2024-01-06T13:37:50;100256.63;;;5.26;100.00
43125;BME280;49182;50.788;7.318;2024-01-06T13:42:51;100252.09;;;5.17;100.00
43125;BME280;49182;50.788;7.318;2024-01-06T13:47:54;100270.81;;;5.24;100.00
43125;BME280;49182;50.788;7.318;2024-01-06T13:52:56;100264.94;;;5.20;100.00
43125;BME280;49182;50.788;7.318;2024-01-06T13:57:58;100268.81;;;5.15;100.00
43125;BME280;49182;50.788;7.318;2024-01-06T14:03:01;100288.19;;;5.12;100.00
43125;BME280;49182;50.788;7.318;2024-01-06T14:08:03;100287.38;;;5.12;100.00
43125;BME280;49182;50.788;7.318;2024-01-06T14:13:05;100289.69;;;5.04;100.00
43125;BME280;49182;50.788;7.318;2024-01-06T14:18:08;100291.22;;;5.06;100.00
43125;BME280;49182;50.788;7.318;2024-01-06T14:23:09;100301.69;;;5.06;100.00
43125;BME280;49182;50.788;7.318;2024-01-06T14:28:11;100310.28;;;5.08;100.00
43125;BME280;49182;50.788;7.318;2024-01-06T14:33:14;100307.16;;;5.03;100.00
43125;BME280;49182;50.788;7.318;2024-01-06T14:38:16;100314.06;;;5.04;100.00
43125;BME280;49182;50.788;7.318;2024-01-06T14:43:18;100314.25;;;5.01;100.00
43125;BME280;49182;50.788;7.318;2024-01-06T14:48:21;100324.63;;;5.03;100.00
43125;BME280;49182;50.788;7.318;2024-01-06T14:53:23;100341.66;;;5.08;100.00
43125;BME280;49182;50.788;7.318;2024-01-06T14:58:25;100342.19;;;5.01;100.00
43125;BME280;49182;50.788;7.318;2024-01-06T15:03:28;100340.41;;;4.88;100.00
43125;BME280;49182;50.788;7.318;2024-01-06T15:08:30;100352.16;;;4.83;100.00
43125;BME280;49182;50.788;7.318;2024-01-06T15:13:31;100358.31;;;4.82;100.00
43125;BME280;49182;50.788;7.318;2024-01-06T15:18:34;100363.34;;;4.85;100.00
43125;BME280;49182;50.788;7.318;2024-01-06T15:23:36;100373.16;;;4.81;100.00
43125;BME280;49182;50.788;7.318;2024-01-06T15:28:38;100375.69;;;4.83;100.00
43125;BME280;49182;50.788;7.318;2024-01-06T15:33:41;100376.53;;;4.83;100.00
43125;BME280;49182;50.788;7.318;2024-01-06T15:38:43;100387.41;;;4.77;100.00
43125;BME280;49182;50.788;7.318;2024-01-06T15:43:44;100389.91;;;4.79;100.00
43125;BME280;49182;50.788;7.318;2024-01-06T15:48:47;100366.88;;;4.59;100.00
43125;BME280;49182;50.788;7.318;2024-01-06T15:53:52;100397.34;;;4.72;100.00
43125;BME280;49182;50.788;7.318;2024-01-06T15:58:53;100376.06;;;4.52;100.00
43125;BME280;49182;50.788;7.318;2024-01-06T16:03:56;100410.59;;;4.69;100.00
43125;BME280;49182;50.788;7.318;2024-01-06T16:08:58;100416.97;;;4.65;100.00
43125;BME280;49182;50.788;7.318;2024-01-06T16:14:00;100421.47;;;4.63;100.00
43125;BME280;49182;50.788;7.318;2024-01-06T16:19:03;100429.19;;;4.52;100.00
43125;BME280;49182;50.788;7.318;2024-01-06T16:24:06;100430.13;;;4.51;100.00
43125;BME280;49182;50.788;7.318;2024-01-06T16:29:07;100430.03;;;4.53;100.00
43125;BME280;49182;50.788;7.318;2024-01-06T16:34:10;100443.59;;;4.45;100.00
43125;BME280;49182;50.788;7.318;2024-01-06T16:39:12;100443.97;;;4.39;100.00
43125;BME280;49182;50.788;7.318;2024-01-06T16:44:14;100441.66;;;4.34;100.00
43125;BME280;49182;50.788;7.318;2024-01-06T16:49:17;100443.84;;;4.28;100.00
43125;BME280;49182;50.788;7.318;2024-01-06T16:54:19;100449.06;;;4.28;100.00
43125;BME280;49182;50.788;7.318;2024-01-06T16:59:21;100456.91;;;4.28;100.00
43125;BME280;49182;50.788;7.318;2024-01-06T17:04:24;100458.78;;;4.26;100.00
43125;BME280;49182;50.788;7.318;2024-01-06T17:09:26;100464.03;;;4.26;100.00
43125;BME280;49182;50.788;7.318;2024-01-06T17:14:28;100471.03;;;4.25;100.00
43125;BME280;49182;50.788;7.318;2024-01-06T17:19:31;100471.75;;;4.27;100.00
43125;BME280;49182;50.788;7.318;2024-01-06T17:24:33;100478.88;;;4.25;100.00
43125;BME280;49182;50.788;7.318;2024-01-06T17:29:35;100479.78;;;4.24;100.00
43125;BME280;49182;50.788;7.318;2024-01-06T17:34:38;100485.50;;;4.17;100.00
43125;BME280;49182;50.788;7.318;2024-01-06T17:39:40;100485.50;;;4.17;100.00
43125;BME280;49182;50.788;7.318;2024-01-06T17:44:42;100501.66;;;4.09;100.00
43125;BME280;49182;50.788;7.318;2024-01-06T17:49:45;100503.63;;;4.05;100.00
43125;BME280;49182;50.788;7.318;2024-01-06T17:54:47;100508.56;;;3.96;100.00
43125;BME280;49182;50.788;7.318;2024-01-06T17:59:49;100518.00;;;3.98;100.00
43125;BME280;49182;50.788;7.318;2024-01-06T18:04:52;100528.53;;;3.97;100.00
43125;BME280;49182;50.788;7.318;2024-01-06T18:09:54;100534.88;;;3.93;100.00
43125;BME280;49182;50.788;7.318;2024-01-06T18:14:55;100539.63;;;3.86;100.00
43125;BME280;49182;50.788;7.318;2024-01-06T18:19:58;100536.56;;;3.94;100.00
43125;BME280;49182;50.788;7.318;2024-01-06T18:25:00;100543.00;;;3.88;100.00
43125;BME280;49182;50.788;7.318;2024-01-06T18:30:02;100555.09;;;3.89;100.00
43125;BME280;49182;50.788;7.318;2024-01-06T18:35:07;100556.53;;;3.95;100.00
43125;BME280;49182;50.788;7.318;2024-01-06T18:40:10;100561.00;;;3.93;100.00
43125;BME280;49182;50.788;7.318;2024-01-06T18:45:12;100543.16;;;3.71;100.00
43125;BME280;49182;50.788;7.318;2024-01-06T18:50:15;100554.84;;;3.80;100.00
43125;BME280;49182;50.788;7.318;2024-01-06T18:55:17;100554.19;;;3.76;100.00
43125;BME280;49182;50.788;7.318;2024-01-06T19:00:19;100414.47;;;2.84;100.00
43125;BME280;49182;50.788;7.318;2024-01-06T19:05:23;100558.84;;;3.71;100.00
43125;BME280;49182;50.788;7.318;2024-01-06T19:10:24;100563.13;;;3.72;100.00
43125;BME280;49182;50.788;7.318;2024-01-06T19:15:26;100545.66;;;3.58;100.00
43125;BME280;49182;50.788;7.318;2024-01-06T19:20:29;100569.56;;;3.66;100.00
43125;BME280;49182;50.788;7.318;2024-01-06T19:25:31;100502.94;;;3.17;100.00
43125;BME280;49182;50.788;7.318;2024-01-06T19:30:33;100580.09;;;3.65;100.00
43125;BME280;49182;50.788;7.318;2024-01-06T19:35:36;100572.81;;;3.56;100.00
43125;BME280;49182;50.788;7.318;2024-01-06T19:40:38;100584.56;;;3.63;100.00
43125;BME280;49182;50.788;7.318;2024-01-06T19:45:40;100597.78;;;3.60;100.00
43125;BME280;49182;50.788;7.318;2024-01-06T19:50:43;100607.41;;;3.59;100.00
43125;BME280;49182;50.788;7.318;2024-01-06T19:55:45;100608.44;;;3.57;100.00
43125;BME280;49182;50.788;7.318;2024-01-06T20:00:47;100614.66;;;3.54;100.00
43125;BME280;49182;50.788;7.318;2024-01-06T20:05:51;100586.13;;;3.21;100.00
43125;BME280;49182;50.788;7.318;2024-01-06T20:10:52;100620.06;;;3.51;100.00
43125;BME280;49182;50.788;7.318;2024-01-06T20:15:54;100629.41;;;3.55;100.00
43125;BME280;49182;50.788;7.318;2024-01-06T20:20:57;100622.31;;;3.57;100.00
43125;BME280;49182;50.788;7.318;2024-01-06T20:25:59;100627.44;;;3.59;100.00
43125;BME280;49182;50.788;7.318;2024-01-06T20:31:01;100630.88;;;3.59;100.00
43125;BME280;49182;50.788;7.318;2024-01-06T20:36:05;100637.78;;;3.60;100.00
43125;BME280;49182;50.788;7.318;2024-01-06T20:41:06;100628.38;;;3.58;100.00
43125;BME280;49182;50.788;7.318;2024-01-06T20:46:08;100629.03;;;3.61;100.00
43125;BME280;49182;50.788;7.318;2024-01-06T20:51:11;100631.72;;;3.60;100.00
43125;BME280;49182;50.788;7.318;2024-01-06T20:56:13;100628.63;;;3.53;100.00
43125;BME280;49182;50.788;7.318;2024-01-06T21:01:15;100639.06;;;3.53;100.00
43125;BME280;49182;50.788;7.318;2024-01-06T21:06:18;100621.34;;;3.44;100.00
43125;BME280;49182;50.788;7.318;2024-01-06T21:11:20;100620.69;;;3.41;100.00
43125;BME280;49182;50.788;7.318;2024-01-06T21:16:22;100637.03;;;3.58;100.00
43125;BME280;49182;50.788;7.318;2024-01-06T21:21:25;100646.66;;;3.58;100.00
43125;BME280;49182;50.788;7.318;2024-01-06T21:26:26;100639.66;;;3.58;100.00
43125;BME280;49182;50.788;7.318;2024-01-06T21:31:28;100635.25;;;3.59;100.00
43125;BME280;49182;50.788;7.318;2024-01-06T21:36:31;100645.22;;;3.52;100.00
43125;BME280;49182;50.788;7.318;2024-01-06T21:41:33;100632.84;;;3.56;100.00
43125;BME280;49182;50.788;7.318;2024-01-06T21:46:36;100637.94;;;3.43;100.00
43125;BME280;49182;50.788;7.318;2024-01-06T21:51:47;100644.56;;;3.49;100.00
43125;BME280;49182;50.788;7.318;2024-01-06T21:56:49;100643.44;;;3.53;100.00
43125;BME280;49182;50.788;7.318;2024-01-06T22:01:51;100655.50;;;3.55;100.00
43125;BME280;49182;50.788;7.318;2024-01-06T22:06:54;100659.34;;;3.64;100.00
43125;BME280;49182;50.788;7.318;2024-01-06T22:11:56;100668.72;;;3.52;100.00
43125;BME280;49182;50.788;7.318;2024-01-06T22:16:57;100670.03;;;3.45;100.00
43125;BME280;49182;50.788;7.318;2024-01-06T22:22:00;100662.28;;;3.28;100.00
43125;BME280;49182;50.788;7.318;2024-01-06T22:27:03;100676.66;;;3.35;100.00
43125;BME280;49182;50.788;7.318;2024-01-06T22:32:06;100668.41;;;3.43;100.00
43125;BME280;49182;50.788;7.318;2024-01-06T22:37:09;100669.19;;;3.45;100.00
43125;BME280;49182;50.788;7.318;2024-01-06T22:42:11;100616.56;;;3.07;100.00
43125;BME280;49182;50.788;7.318;2024-01-06T22:47:12;100658.41;;;3.35;100.00
43125;BME280;49182;50.788;7.318;2024-01-06T22:52:16;100669.53;;;3.39;100.00
43125;BME280;49182;50.788;7.318;2024-01-06T22:57:18;100674.56;;;3.42;100.00
43125;BME280;49182;50.788;7.318;2024-01-06T23:02:19;100681.81;;;3.37;100.00
43125;BME280;49182;50.788;7.318;2024-01-06T23:07:22;100681.97;;;3.34;100.00
43125;BME280;49182;50.788;7.318;2024-01-06T23:12:24;100688.72;;;3.38;100.00
43125;BME280;49182;50.788;7.318;2024-01-06T23:17:26;100686.38;;;3.33;100.00
43125;BME280;49182;50.788;7.318;2024-01-06T23:22:29;100689.91;;;3.32;100.00
43125;BME280;49182;50.788;7.318;2024-01-06T23:27:31;100699.41;;;3.33;100.00
43125;BME280;49182;50.788;7.318;2024-01-06T23:32:33;100707.13;;;3.35;100.00
43125;BME280;49182;50.788;7.318;2024-01-06T23:37:36;100706.22;;;3.36;100.00
43125;BME280;49182;50.788;7.318;2024-01-06T23:42:42;100705.03;;;3.41;100.00
43125;BME280;49182;50.788;7.318;2024-01-06T23:47:44;100718.41;;;3.35;100.00
43125;BME280;49182;50.788;7.318;2024-01-06T23:52:47;100713.88;;;3.39;100.00
43125;BME280;49182;50.788;7.318;2024-01-06T23:57:49;100713.63;;;3.28;100.00
